Time;durP1;ratioP1;P1;durP2;ratioP2;P2;SDS_P1;SDS_P2;PMS_P1;PMS_P2;Temp;Humidity;BMP_temperature;BMP_pressure;BME280_temperature;BME280_humidity;BME280_pressure;Samples;Min_cycle;Max_cycle;Signal;HPM_P1;HPM_P2
2023/09/11 00:02:05;;;;;;;10.40;9.13;;;;;;;;;;4948401;28;20739;-88
2023/09/11 00:04:34;;;;;;;11.80;9.20;;;;;;;;;;4964777;28;20751;-88
2023/09/11 00:07:03;;;;;;;13.03;8.83;;;;;;;;;;4965846;28;21074;-87
2023/09/11 00:09:32;;;;;;;18.67;9.23;;;;;;;;;;4966252;28;20626;-88
2023/09/11 00:12:00;;;;;;;11.33;8.63;;;;;;;;;;4949106;28;20703;-88
2023/09/11 00:14:29;;;;;;;10.90;8.10;;;;;;;;;;4948991;28;20698;-88
2023/09/11 00:17:00;;;;;;;10.57;8.93;;;;;;;;;;4948899;28;20702;-88
2023/09/11 00:19:29;;;;;;;18.37;9.33;;;;;;;;;;4949517;28;20574;-87
2023/09/11 00:21:57;;;;;;;15.10;8.80;;;;;;;;;;4964656;28;20714;-88
2023/09/11 00:24:27;;;;;;;15.93;9.13;;;;;;;;;;4964711;28;20567;-88
2023/09/11 00:26:56;;;;;;;12.10;8.30;;;;;;;;;;4948837;28;20683;-88
2023/09/11 00:29:24;;;;;;;18.53;9.80;;;;;;;;;;4965483;29;20602;-89
2023/09/11 00:31:53;;;;;;;16.40;9.03;;;;;;;;;;4964879;28;20612;-88
2023/09/11 00:34:21;;;;;;;20.20;8.10;;;;;;;;;;4948618;28;20707;-88
2023/09/11 00:36:50;;;;;;;16.97;9.63;;;;;;;;;;4964296;28;20710;-88
2023/09/11 00:39:19;;;;;;;13.77;9.03;;;;;;;;;;4946623;28;20766;-88
2023/09/11 00:41:51;;;;;;;16.37;8.83;;;;;;;;;;4948560;28;20754;-89
2023/09/11 00:44:19;;;;;;;12.63;8.53;;;;;;;;;;4931843;29;20665;-88
2023/09/11 00:46:48;;;;;;;14.33;8.00;;;;;;;;;;4964935;29;20618;-89
2023/09/11 00:49:19;;;;;;;12.03;9.10;;;;;;;;;;4964303;28;20715;-89
2023/09/11 00:51:48;;;;;;;10.90;8.50;;;;;;;;;;4947084;29;20636;-89
2023/09/11 00:54:17;;;;;;;17.97;9.83;;;;;;;;;;4947332;29;20734;-88
2023/09/11 00:56:46;;;;;;;11.73;8.90;;;;;;;;;;4963805;28;20720;-89
2023/09/11 00:59:16;;;;;;;11.20;8.67;;;;;;;;;;4929639;29;21138;-89
2023/09/11 01:01:45;;;;;;;14.67;8.13;;;;;;;;;;4955538;28;20659;-90
2023/09/11 01:04:14;;;;;;;11.70;7.90;;;;;;;;;;4958406;28;20714;-88
2023/09/11 01:06:42;;;;;;;19.03;9.10;;;;;;;;;;4958834;28;20647;-88
2023/09/11 01:09:11;;;;;;;13.03;8.70;;;;;;;;;;4958090;28;20636;-89
2023/09/11 01:11:40;;;;;;;11.67;8.63;;;;;;;;;;4975338;28;20634;-88
2023/09/11 01:14:08;;;;;;;15.37;8.10;;;;;;;;;;4942576;29;20637;-88
2023/09/11 01:16:41;;;;;;;17.57;8.00;;;;;;;;;;4955887;28;20665;-88
2023/09/11 01:19:14;;;;;;;15.97;7.73;;;;;;;;;;4949348;28;20664;-88
2023/09/11 01:21:54;;;;;;;13.23;7.67;;;;;;;;;;4957888;28;20671;-88
2023/09/11 01:24:33;;;;;;;13.53;7.67;;;;;;;;;;4957319;29;20634;-88
2023/09/11 01:27:17;;;;;;;14.30;9.00;;;;;;;;;;4941466;29;21207;-88
2023/09/11 01:29:47;;;;;;;10.27;9.03;;;;;;;;;;4939087;29;20649;-88
2023/09/11 01:32:17;;;;;;;11.03;8.83;;;;;;;;;;4974322;29;20718;-89
2023/09/11 01:34:45;;;;;;;10.07;8.40;;;;;;;;;;4957461;29;20661;-89
2023/09/11 01:37:13;;;;;;;19.67;8.80;;;;;;;;;;4941929;29;20627;-88
2023/09/11 01:39:41;;;;;;;12.17;9.37;;;;;;;;;;4924705;29;20650;-89
2023/09/11 01:42:13;;;;;;;19.97;8.57;;;;;;;;;;4957486;29;20699;-88
2023/09/11 01:44:43;;;;;;;9.40;7.70;;;;;;;;;;4957608;29;20636;-87
2023/09/11 01:47:14;;;;;;;11.27;8.57;;;;;;;;;;4956711;28;20640;-87
2023/09/11 01:49:42;;;;;;;9.30;8.10;;;;;;;;;;4960777;28;20627;-89
2023/09/11 01:52:11;;;;;;;15.50;8.57;;;;;;;;;;4963432;28;20651;-89
2023/09/11 01:54:39;;;;;;;14.80;8.30;;;;;;;;;;4963536;28;20727;-88
2023/09/11 01:57:09;;;;;;;11.20;8.10;;;;;;;;;;4964084;28;20670;-88
2023/09/11 01:59:38;;;;;;;14.90;8.00;;;;;;;;;;4951037;29;20634;-87
2023/09/11 02:02:07;;;;;;;14.13;8.17;;;;;;;;;;4966806;28;20666;-87
2023/09/11 02:04:36;;;;;;;10.13;8.30;;;;;;;;;;4966174;28;21085;-89
2023/09/11 02:07:06;;;;;;;14.53;9.03;;;;;;;;;;4946154;29;20608;-88
2023/09/11 02:09:35;;;;;;;13.57;8.00;;;;;;;;;;4960018;28;20663;-88
2023/09/11 02:12:03;;;;;;;11.83;7.27;;;;;;;;;;4963338;29;20632;-88
2023/09/11 02:14:33;;;;;;;12.30;7.63;;;;;;;;;;4964358;28;20659;-89
2023/09/11 02:17:02;;;;;;;10.73;7.60;;;;;;;;;;4963182;28;20671;-88
2023/09/11 02:19:31;;;;;;;11.50;8.03;;;;;;;;;;4944435;29;20637;-89
2023/09/11 02:22:01;;;;;;;13.23;8.43;;;;;;;;;;4961633;28;20702;-87
2023/09/11 02:24:29;;;;;;;18.13;7.90;;;;;;;;;;4978387;28;20643;-87
2023/09/11 02:26:58;;;;;;;12.13;7.40;;;;;;;;;;4962224;29;20624;-87
2023/09/11 02:29:26;;;;;;;9.30;8.40;;;;;;;;;;4962315;28;20643;-87
2023/09/11 02:31:55;;;;;;;12.23;7.73;;;;;;;;;;4960458;29;20636;-88
2023/09/11 02:34:41;;;;;;;25.83;7.67;;;;;;;;;;4946862;29;20624;-88
2023/09/11 02:37:13;;;;;;;12.20;8.27;;;;;;;;;;4960412;29;20647;-88
2023/09/11 02:39:42;;;;;;;8.83;6.87;;;;;;;;;;4943704;29;20616;-89
2023/09/11 02:42:10;;;;;;;9.40;8.10;;;;;;;;;;4959909;29;20648;-88
2023/09/11 02:44:39;;;;;;;9.20;8.30;;;;;;;;;;4961221;29;20628;-88
2023/09/11 02:47:07;;;;;;;10.17;8.90;;;;;;;;;;4971071;29;21228;-89
2023/09/11 02:49:36;;;;;;;15.43;9.00;;;;;;;;;;4946691;28;20631;-88
2023/09/11 02:52:04;;;;;;;18.70;8.70;;;;;;;;;;4947307;29;20674;-88
2023/09/11 02:54:34;;;;;;;17.13;7.97;;;;;;;;;;4969147;28;20642;-87
2023/09/11 02:57:02;;;;;;;10.70;8.00;;;;;;;;;;4943013;29;20628;-87
2023/09/11 02:59:31;;;;;;;12.17;8.30;;;;;;;;;;4967240;29;20639;-88
2023/09/11 03:01:58;;;;;;;12.00;8.90;;;;;;;;;;4945731;28;20691;-87
2023/09/11 03:04:27;;;;;;;10.50;8.83;;;;;;;;;;4930817;29;20683;-88
2023/09/11 03:06:56;;;;;;;11.00;8.90;;;;;;;;;;4943221;29;20670;-87
2023/09/11 03:09:24;;;;;;;12.80;8.67;;;;;;;;;;4942724;29;20620;-87
2023/09/11 03:11:54;;;;;;;10.50;9.50;;;;;;;;;;4943473;29;20647;-89
2023/09/11 03:14:41;;;;;;;12.50;9.03;;;;;;;;;;4960586;28;20590;-89
2023/09/11 03:17:13;;;;;;;15.50;9.13;;;;;;;;;;4944554;29;20659;-88
2023/09/11 03:19:42;;;;;;;12.60;8.77;;;;;;;;;;4943626;29;20642;-89
2023/09/11 03:22:11;;;;;;;13.00;9.20;;;;;;;;;;4975905;28;20715;-88
2023/09/11 03:25:00;;;;;;;16.53;10.10;;;;;;;;;;4958255;29;20622;-87
2023/09/11 03:27:32;;;;;;;15.83;8.40;;;;;;;;;;4941246;29;20641;-89
2023/09/11 03:30:01;;;;;;;15.17;8.33;;;;;;;;;;4958330;28;20630;-89
2023/09/11 03:32:29;;;;;;;18.53;9.43;;;;;;;;;;4958221;29;20659;-88
2023/09/11 03:34:58;;;;;;;13.10;9.57;;;;;;;;;;4975058;28;20722;-89
2023/09/11 03:37:26;;;;;;;11.40;8.43;;;;;;;;;;4974735;28;20614;-88
2023/09/11 03:39:57;;;;;;;8.90;8.10;;;;;;;;;;4957502;28;20656;-88
2023/09/11 03:42:25;;;;;;;13.13;8.17;;;;;;;;;;4940145;29;20662;-89
2023/09/11 03:44:56;;;;;;;13.27;8.97;;;;;;;;;;4956812;28;20610;-87
2023/09/11 03:47:26;;;;;;;30.17;8.87;;;;;;;;;;4940435;29;20602;-89
2023/09/11 03:49:54;;;;;;;14.93;8.57;;;;;;;;;;4937202;29;21026;-87
2023/09/11 03:52:25;;;;;;;12.13;8.90;;;;;;;;;;4953904;28;20692;-89
2023/09/11 03:55:00;;;;;;;10.67;9.13;;;;;;;;;;4957615;28;20614;-88
2023/09/11 03:57:28;;;;;;;11.80;8.40;;;;;;;;;;4973346;28;20600;-89
2023/09/11 03:59:58;;;;;;;12.47;8.10;;;;;;;;;;4957636;28;20626;-88
2023/09/11 04:02:26;;;;;;;13.80;9.67;;;;;;;;;;4956889;28;20701;-88
2023/09/11 04:04:55;;;;;;;12.50;9.27;;;;;;;;;;4957257;28;20654;-88
2023/09/11 04:07:26;;;;;;;14.63;9.20;;;;;;;;;;4942324;29;20647;-88
2023/09/11 04:09:56;;;;;;;15.40;9.27;;;;;;;;;;4954167;28;20614;-88
2023/09/11 04:12:27;;;;;;;10.17;7.93;;;;;;;;;;4940062;28;20643;-86
2023/09/11 04:14:56;;;;;;;14.30;9.00;;;;;;;;;;4958539;28;20602;-87
2023/09/11 04:17:25;;;;;;;18.60;8.90;;;;;;;;;;4958397;28;20619;-88
2023/09/11 04:19:55;;;;;;;13.97;9.03;;;;;;;;;;4959318;28;20639;-89
2023/09/11 04:22:23;;;;;;;16.23;8.50;;;;;;;;;;4958217;28;20679;-87
2023/09/11 04:24:52;;;;;;;11.67;8.60;;;;;;;;;;4943263;28;20698;-87
2023/09/11 04:27:20;;;;;;;11.50;8.00;;;;;;;;;;4943046;28;20632;-89
2023/09/11 04:29:54;;;;;;;10.40;9.40;;;;;;;;;;4955860;28;20647;-88
2023/09/11 04:32:26;;;;;;;11.43;8.67;;;;;;;;;;4938927;29;20675;-87
2023/09/11 04:34:58;;;;;;;15.53;8.87;;;;;;;;;;4955233;28;20579;-87
2023/09/11 04:37:27;;;;;;;18.13;8.93;;;;;;;;;;4955471;29;20563;-87
2023/09/11 04:40:06;;;;;;;16.60;10.30;;;;;;;;;;4955570;29;20652;-87
2023/09/11 04:42:34;;;;;;;11.57;8.60;;;;;;;;;;4938965;29;20685;-88
2023/09/11 04:45:05;;;;;;;11.33;9.03;;;;;;;;;;4939282;29;20647;-89
2023/09/11 04:47:35;;;;;;;13.60;9.00;;;;;;;;;;4964531;28;20622;-88
2023/09/11 04:50:05;;;;;;;15.23;8.10;;;;;;;;;;4958598;28;20622;-87
2023/09/11 04:52:35;;;;;;;10.53;9.17;;;;;;;;;;4942719;29;20595;-88
2023/09/11 04:55:06;;;;;;;11.93;8.83;;;;;;;;;;4944240;29;20605;-88
2023/09/11 04:57:36;;;;;;;9.80;8.60;;;;;;;;;;4942206;29;20631;-89
2023/09/11 05:00:10;;;;;;;12.17;9.57;;;;;;;;;;4959171;28;20598;-89
2023/09/11 05:02:46;;;;;;;13.30;9.53;;;;;;;;;;4957687;28;20631;-89
2023/09/11 05:05:16;;;;;;;10.80;8.17;;;;;;;;;;5051190;23;20680;-89
2023/09/11 05:07:46;;;;;;;12.10;8.87;;;;;;;;;;4939678;29;20660;-89
2023/09/11 05:10:15;;;;;;;9.70;8.80;;;;;;;;;;4969842;28;20620;-89
2023/09/11 05:31:18;;;;;;;14.47;9.33;;;;;;;;;;5575317;23;20780;-92
2023/09/11 05:37:02;;;;;;;;;;;;;;;;;;;;;
2023/09/11 05:42:37;;;;;;;9.30;7.80;;;;;;;;;;4930378;29;20627;-88
2023/09/11 05:45:09;;;;;;;18.70;9.60;;;;;;;;;;4921923;28;20696;-88
2023/09/11 05:47:39;;;;;;;16.93;8.80;;;;;;;;;;4931747;29;20585;-87
2023/09/11 05:50:11;;;;;;;18.00;10.27;;;;;;;;;;4930168;29;20994;-90
2023/09/11 05:52:39;;;;;;;12.50;9.57;;;;;;;;;;4950515;29;20723;-85
2023/09/11 06:08:18;;;;;;;10.10;8.20;;;;;;;;;;5140094;27;20693;-89
2023/09/11 06:10:47;;;;;;;18.20;9.00;;;;;;;;;;5102998;28;20750;-86
2023/09/11 06:13:15;;;;;;;12.50;7.73;;;;;;;;;;5125499;27;20627;-85
2023/09/11 06:15:45;;;;;;;11.57;9.47;;;;;;;;;;5132329;27;20672;-87
2023/09/11 06:21:15;;;;;;;19.40;8.23;;;;;;;;;;4973504;28;20675;-86
2023/09/11 06:26:44;;;;;;;16.03;10.53;;;;;;;;;;5379289;23;21486;-89
2023/09/11 06:29:13;;;;;;;10.67;8.50;;;;;;;;;;4980240;28;20610;-87
2023/09/11 06:31:42;;;;;;;11.83;9.17;;;;;;;;;;4981551;28;20685;-88
2023/09/11 06:34:10;;;;;;;9.90;8.60;;;;;;;;;;4994376;28;20617;-89
2023/09/11 06:36:39;;;;;;;21.07;9.77;;;;;;;;;;4992011;28;20681;-88
2023/09/11 06:39:07;;;;;;;17.07;10.93;;;;;;;;;;4974771;28;20614;-87
2023/09/11 06:41:35;;;;;;;10.03;8.80;;;;;;;;;;4991234;28;20654;-85
2023/09/11 06:44:07;;;;;;;16.67;8.87;;;;;;;;;;5010034;28;20613;-86
2023/09/11 06:46:36;;;;;;;15.40;8.50;;;;;;;;;;4986905;28;20673;-86
2023/09/11 06:49:04;;;;;;;16.30;9.03;;;;;;;;;;5003966;28;20661;-88
2023/09/11 06:51:33;;;;;;;15.17;9.80;;;;;;;;;;4991327;28;20650;-90
2023/09/11 06:54:03;;;;;;;16.77;10.83;;;;;;;;;;4989685;28;21069;-89
2023/09/11 07:02:40;;;;;;;28.20;12.03;;;;;;;;;;4968519;23;20664;-90
2023/09/11 07:08:06;;;;;;;15.40;10.20;;;;;;;;;;5195453;23;20716;-89
2023/09/11 07:10:37;;;;;;;12.50;9.40;;;;;;;;;;4914611;29;20667;-90
2023/09/11 07:13:34;;;;;;;15.23;9.13;;;;;;;;;;5213230;23;20681;-88
2023/09/11 07:16:04;;;;;;;16.00;8.73;;;;;;;;;;4849522;29;20661;-88
2023/09/11 07:18:35;;;;;;;17.93;9.47;;;;;;;;;;4867295;29;20628;-89
2023/09/11 07:21:05;;;;;;;16.87;9.90;;;;;;;;;;4869840;29;20719;-87
2023/09/11 07:23:34;;;;;;;14.10;9.77;;;;;;;;;;4886178;29;20623;-89
2023/09/11 07:32:15;;;;;;;15.23;10.57;;;;;;;;;;675025;23;21157;-87
2023/09/11 07:34:45;;;;;;;10.70;9.30;;;;;;;;;;4909405;29;20689;-88
2023/09/11 07:37:13;;;;;;;14.63;10.77;;;;;;;;;;4911663;29;20705;-89
2023/09/11 07:39:42;;;;;;;19.90;11.50;;;;;;;;;;4897674;29;20597;-89
2023/09/11 07:42:10;;;;;;;20.50;10.57;;;;;;;;;;4910860;29;20718;-88
2023/09/11 07:44:39;;;;;;;14.83;11.03;;;;;;;;;;4928664;29;20791;-87
2023/09/11 07:47:08;;;;;;;21.57;10.93;;;;;;;;;;4909087;29;20735;-89
2023/09/11 07:49:37;;;;;;;18.63;11.10;;;;;;;;;;4910445;29;20685;-88
2023/09/11 07:52:07;;;;;;;20.83;10.80;;;;;;;;;;4893902;29;20730;-88
2023/09/11 07:54:43;;;;;;;17.10;11.23;;;;;;;;;;4898974;29;20663;-86
2023/09/11 07:57:13;;;;;;;20.10;10.90;;;;;;;;;;4912147;29;20653;-87
2023/09/11 07:59:41;;;;;;;17.83;11.00;;;;;;;;;;4916373;29;20653;-88
2023/09/11 08:02:09;;;;;;;18.97;11.23;;;;;;;;;;4918362;29;20637;-87
2023/09/11 08:07:50;;;;;;;19.53;9.30;;;;;;;;;;4928069;29;20605;-87
2023/09/11 08:10:18;;;;;;;17.13;10.50;;;;;;;;;;4916568;29;20602;-87
2023/09/11 08:12:46;;;;;;;13.53;9.50;;;;;;;;;;4921635;29;20634;-87
2023/09/11 08:15:15;;;;;;;16.33;10.67;;;;;;;;;;4901583;29;20660;-89
2023/09/11 08:17:43;;;;;;;19.60;10.43;;;;;;;;;;4911256;29;20669;-88
2023/09/11 08:20:12;;;;;;;13.83;10.50;;;;;;;;;;4913551;29;20665;-87
2023/09/11 08:22:41;;;;;;;17.33;10.53;;;;;;;;;;4900578;29;20657;-87
2023/09/11 08:25:15;;;;;;;25.13;11.03;;;;;;;;;;4917048;29;20625;-87
2023/09/11 08:27:43;;;;;;;17.67;10.50;;;;;;;;;;4932696;29;20668;-86
2023/09/11 08:30:11;;;;;;;15.30;11.10;;;;;;;;;;4899676;29;21086;-87
2023/09/11 08:32:42;;;;;;;13.90;10.40;;;;;;;;;;4911768;29;21203;-87
2023/09/11 08:35:11;;;;;;;12.37;10.20;;;;;;;;;;4915741;29;20649;-88
2023/09/11 08:37:46;;;;;;;20.10;10.07;;;;;;;;;;4914133;29;20701;-90
2023/09/11 08:40:21;;;;;;;19.80;10.27;;;;;;;;;;4895662;29;20648;-91
2023/09/11 08:42:49;;;;;;;17.60;10.30;;;;;;;;;;4916438;29;20614;-88
2023/09/11 08:45:18;;;;;;;10.47;9.57;;;;;;;;;;4911886;29;20710;-86
2023/09/11 08:47:49;;;;;;;14.20;11.30;;;;;;;;;;4914942;29;20618;-88
2023/09/11 08:50:27;;;;;;;18.33;10.60;;;;;;;;;;4902099;29;20634;-89
2023/09/11 08:53:03;;;;;;;15.03;10.73;;;;;;;;;;4914857;29;20672;-87
2023/09/11 08:55:48;;;;;;;18.63;10.30;;;;;;;;;;4888058;29;20644;-88
2023/09/11 08:58:46;;;;;;;11.93;10.73;;;;;;;;;;4916110;29;20643;-86
2023/09/11 09:01:21;;;;;;;13.87;9.63;;;;;;;;;;4908405;29;20652;-87
2023/09/11 09:03:50;;;;;;;14.77;10.53;;;;;;;;;;4912831;29;20662;-87
2023/09/11 09:06:19;;;;;;;12.80;11.10;;;;;;;;;;4911003;29;20673;-88
2023/09/11 09:08:48;;;;;;;16.17;9.77;;;;;;;;;;4898780;29;20686;-88
2023/09/11 09:11:20;;;;;;;18.53;9.20;;;;;;;;;;4917075;29;20650;-88
2023/09/11 09:13:52;;;;;;;18.20;9.67;;;;;;;;;;4918450;29;20633;-89
2023/09/11 09:16:27;;;;;;;15.07;9.60;;;;;;;;;;4903568;29;20619;-88
2023/09/11 09:18:56;;;;;;;12.23;9.67;;;;;;;;;;4900321;29;20658;-87
2023/09/11 09:21:25;;;;;;;11.33;9.37;;;;;;;;;;4916589;29;20602;-88
2023/09/11 09:23:56;;;;;;;12.77;10.13;;;;;;;;;;4915136;29;20626;-87
2023/09/11 09:26:27;;;;;;;17.53;9.90;;;;;;;;;;4914122;29;20729;-89
2023/09/11 09:28:57;;;;;;;12.80;10.03;;;;;;;;;;4899563;29;20682;-88
2023/09/11 09:31:27;;;;;;;15.03;10.50;;;;;;;;;;4917093;29;20764;-88
2023/09/11 09:36:52;;;;;;;15.70;10.40;;;;;;;;;;4902610;29;20653;-89
2023/09/11 09:39:21;;;;;;;10.80;9.73;;;;;;;;;;4901937;29;20686;-89
2023/09/11 09:41:57;;;;;;;24.27;9.60;;;;;;;;;;4914846;29;20642;-90
2023/09/11 09:44:29;;;;;;;12.33;9.03;;;;;;;;;;4917892;29;20650;-85
2023/09/11 09:46:57;;;;;;;10.97;10.00;;;;;;;;;;4913364;29;20619;-89
2023/09/11 09:49:26;;;;;;;11.53;10.40;;;;;;;;;;4910070;29;20649;-87
2023/09/11 09:51:55;;;;;;;12.20;10.43;;;;;;;;;;4910464;29;20654;-89
2023/09/11 09:54:41;;;;;;;17.13;10.27;;;;;;;;;;4896404;29;20939;-87
2023/09/11 09:57:12;;;;;;;9.87;8.70;;;;;;;;;;4905764;29;20748;-87
2023/09/11 09:59:42;;;;;;;11.07;9.20;;;;;;;;;;4907044;29;20657;-87
2023/09/11 10:02:12;;;;;;;11.23;10.00;;;;;;;;;;4889549;29;20615;-88
2023/09/11 10:04:40;;;;;;;10.57;9.53;;;;;;;;;;4892710;29;20652;-88
2023/09/11 10:07:09;;;;;;;11.47;10.37;;;;;;;;;;4894028;29;20662;-87
2023/09/11 10:09:43;;;;;;;10.70;9.60;;;;;;;;;;4893205;29;20651;-87
2023/09/11 10:12:15;;;;;;;13.10;10.00;;;;;;;;;;4912771;29;21046;-89
2023/09/11 10:14:43;;;;;;;11.87;10.70;;;;;;;;;;4911878;29;20626;-89
2023/09/11 10:17:12;;;;;;;10.40;9.60;;;;;;;;;;4910923;29;20630;-88
2023/09/11 10:19:41;;;;;;;11.30;10.30;;;;;;;;;;4895939;29;20650;-87
2023/09/11 10:22:13;;;;;;;13.70;9.70;;;;;;;;;;4896334;29;20622;-89
2023/09/11 10:24:41;;;;;;;11.77;9.60;;;;;;;;;;4898887;29;20638;-88
2023/09/11 10:27:09;;;;;;;11.77;10.67;;;;;;;;;;4912084;29;20669;-88
2023/09/11 10:29:44;;;;;;;14.40;10.63;;;;;;;;;;4912467;29;20654;-89
2023/09/11 10:32:18;;;;;;;11.60;10.63;;;;;;;;;;4912927;29;20639;-87
2023/09/11 10:34:47;;;;;;;11.77;10.80;;;;;;;;;;4920605;29;20593;-89
2023/09/11 10:37:16;;;;;;;11.00;9.77;;;;;;;;;;4920082;29;20634;-88
2023/09/11 10:39:44;;;;;;;11.70;9.57;;;;;;;;;;4903503;29;20681;-89
2023/09/11 10:42:12;;;;;;;11.23;10.10;;;;;;;;;;4913934;29;20633;-88
2023/09/11 10:44:42;;;;;;;10.20;9.40;;;;;;;;;;4932730;29;20673;-87
2023/09/11 10:47:11;;;;;;;15.13;10.93;;;;;;;;;;4924818;29;20701;-87
2023/09/11 10:49:41;;;;;;;19.80;9.70;;;;;;;;;;4925655;29;20629;-90
2023/09/11 10:52:10;;;;;;;10.70;9.43;;;;;;;;;;4910878;29;20641;-90
2023/09/11 10:54:42;;;;;;;14.03;10.63;;;;;;;;;;4906629;29;20601;-89
2023/09/11 10:57:10;;;;;;;11.40;10.17;;;;;;;;;;4923346;29;20629;-89
2023/09/11 10:59:40;;;;;;;10.33;9.40;;;;;;;;;;4918261;29;20744;-91
2023/09/11 11:02:15;;;;;;;15.17;10.30;;;;;;;;;;4897128;29;20749;-90
2023/09/11 11:04:47;;;;;;;11.67;10.50;;;;;;;;;;4893580;29;20748;-91
2023/09/11 11:07:18;;;;;;;14.00;10.87;;;;;;;;;;4909449;29;21006;-90
2023/09/11 11:09:55;;;;;;;11.60;10.50;;;;;;;;;;4907701;29;20616;-90
2023/09/11 11:12:49;;;;;;;12.07;11.07;;;;;;;;;;4912596;29;20621;-90
2023/09/11 11:18:35;;;;;;;12.40;11.20;;;;;;;;;;4907683;29;20673;-90
2023/09/11 11:21:34;;;;;;;13.40;12.30;;;;;;;;;;4911621;29;20732;-90
2023/09/11 11:24:34;;;;;;;14.23;12.83;;;;;;;;;;4917620;29;20887;-90
2023/09/11 11:27:16;;;;;;;13.20;11.33;;;;;;;;;;4904795;29;20637;-87
2023/09/11 11:29:45;;;;;;;13.00;12.00;;;;;;;;;;4891493;29;20708;-88
2023/09/11 11:32:14;;;;;;;13.87;12.67;;;;;;;;;;4908420;29;20628;-87
2023/09/11 11:34:45;;;;;;;13.77;11.83;;;;;;;;;;4890916;29;20717;-87
2023/09/11 11:37:20;;;;;;;14.40;13.10;;;;;;;;;;4926599;29;20673;-88
2023/09/11 11:39:48;;;;;;;20.73;13.20;;;;;;;;;;4929875;29;20732;-89
2023/09/11 11:42:19;;;;;;;13.20;12.30;;;;;;;;;;4916484;29;20644;-89
2023/09/11 11:44:48;;;;;;;12.70;11.80;;;;;;;;;;4930211;29;20667;-89
2023/09/11 11:47:17;;;;;;;13.83;12.67;;;;;;;;;;4918396;29;20629;-89
2023/09/11 11:49:49;;;;;;;12.90;12.00;;;;;;;;;;4905057;29;20626;-90
2023/09/11 11:52:27;;;;;;;15.73;11.97;;;;;;;;;;4938710;29;20681;-90
2023/09/11 11:54:56;;;;;;;13.50;12.50;;;;;;;;;;4902192;29;20653;-89
2023/09/11 11:57:25;;;;;;;12.70;11.53;;;;;;;;;;4901581;29;20674;-88
2023/09/11 11:59:53;;;;;;;14.30;11.90;;;;;;;;;;4933234;29;20729;-92
2023/09/11 12:02:22;;;;;;;12.20;11.33;;;;;;;;;;5125483;23;20708;-89
2023/09/11 12:04:54;;;;;;;14.53;12.50;;;;;;;;;;4907423;23;20683;-86
2023/09/11 12:07:34;;;;;;;13.70;12.37;;;;;;;;;;4899023;29;20618;-86
2023/09/11 12:10:02;;;;;;;12.93;11.90;;;;;;;;;;4916996;29;20701;-86
2023/09/11 12:12:30;;;;;;;14.67;13.20;;;;;;;;;;4894768;29;20613;-86
2023/09/11 12:15:00;;;;;;;13.03;11.93;;;;;;;;;;4901252;29;20680;-87
2023/09/11 12:17:29;;;;;;;12.83;11.73;;;;;;;;;;4894994;29;20659;-85
2023/09/11 12:20:11;;;;;;;13.23;12.13;;;;;;;;;;4900235;29;20713;-86
2023/09/11 12:22:42;;;;;;;13.13;12.00;;;;;;;;;;4908717;29;20621;-84
2023/09/11 12:25:12;;;;;;;12.80;11.63;;;;;;;;;;4917078;29;20617;-84
2023/09/11 12:27:41;;;;;;;12.77;11.67;;;;;;;;;;4901407;29;20640;-84
2023/09/11 12:30:10;;;;;;;12.07;11.37;;;;;;;;;;4916867;29;20724;-84
2023/09/11 12:32:38;;;;;;;13.00;11.70;;;;;;;;;;4920564;29;20673;-83
2023/09/11 12:35:06;;;;;;;13.67;12.40;;;;;;;;;;4903319;29;20650;-84
2023/09/11 12:37:34;;;;;;;14.67;12.00;;;;;;;;;;4915200;29;20640;-83
2023/09/11 12:40:08;;;;;;;13.53;12.43;;;;;;;;;;4914805;29;20609;-84
2023/09/11 12:42:38;;;;;;;12.33;11.50;;;;;;;;;;4916219;29;20635;-84
2023/09/11 12:45:07;;;;;;;12.87;11.87;;;;;;;;;;4899386;29;20642;-83
2023/09/11 12:47:36;;;;;;;13.00;11.80;;;;;;;;;;4900482;29;20614;-85
2023/09/11 12:50:05;;;;;;;12.30;11.30;;;;;;;;;;4883193;29;20737;-84
2023/09/11 12:52:33;;;;;;;12.93;11.90;;;;;;;;;;4911121;29;20634;-85
2023/09/11 12:55:02;;;;;;;13.00;11.83;;;;;;;;;;4915629;29;20634;-85
2023/09/11 12:57:32;;;;;;;13.70;12.50;;;;;;;;;;4895935;29;20648;-86
2023/09/11 13:00:06;;;;;;;13.20;12.20;;;;;;;;;;4881472;29;20635;-87
2023/09/11 13:02:34;;;;;;;12.53;11.63;;;;;;;;;;4864962;29;20650;-85
2023/09/11 13:05:03;;;;;;;13.00;11.80;;;;;;;;;;4884980;29;20685;-87
2023/09/11 13:08:02;;;;;;;13.27;12.07;;;;;;;;;;4918747;29;20586;-89
2023/09/11 13:10:44;;;;;;;13.30;12.20;;;;;;;;;;4907578;29;20768;-88
2023/09/11 13:13:28;;;;;;;12.70;11.80;;;;;;;;;;4921605;29;20658;-88
2023/09/11 13:16:09;;;;;;;11.40;10.60;;;;;;;;;;4903264;29;20629;-86
2023/09/11 13:18:38;;;;;;;10.40;9.80;;;;;;;;;;4911570;29;20698;-86
2023/09/11 13:21:08;;;;;;;12.37;10.87;;;;;;;;;;4910655;29;20766;-86
2023/09/11 13:23:37;;;;;;;11.13;10.33;;;;;;;;;;4895619;29;20696;-87
2023/09/11 13:26:08;;;;;;;12.00;10.30;;;;;;;;;;4909027;29;20683;-87
2023/09/11 13:28:38;;;;;;;12.40;10.73;;;;;;;;;;4925815;29;20685;-87
2023/09/11 13:31:06;;;;;;;12.60;10.80;;;;;;;;;;4908375;29;20844;-88
2023/09/11 13:33:35;;;;;;;11.90;10.80;;;;;;;;;;4910789;29;20597;-88
2023/09/11 13:36:03;;;;;;;11.37;10.23;;;;;;;;;;4893824;29;20697;-88
2023/09/11 13:38:32;;;;;;;11.80;11.00;;;;;;;;;;4894380;29;20685;-87
2023/09/11 13:41:01;;;;;;;11.30;10.50;;;;;;;;;;4908602;29;21187;-88
2023/09/11 13:43:29;;;;;;;11.93;10.73;;;;;;;;;;4926943;29;20614;-86
2023/09/11 13:46:00;;;;;;;12.37;11.27;;;;;;;;;;4905199;29;20795;-87
2023/09/11 13:48:29;;;;;;;11.53;10.43;;;;;;;;;;4891555;29;20677;-88
2023/09/11 13:50:57;;;;;;;11.83;10.87;;;;;;;;;;4875485;29;20669;-87
2023/09/11 13:53:25;;;;;;;12.27;11.30;;;;;;;;;;4875793;29;21070;-88
2023/09/11 13:55:54;;;;;;;12.10;11.40;;;;;;;;;;4876465;29;20613;-87
2023/09/11 13:58:24;;;;;;;12.07;10.97;;;;;;;;;;4891100;29;20618;-87
2023/09/11 14:00:53;;;;;;;11.40;10.50;;;;;;;;;;4875915;29;20800;-88
2023/09/11 14:03:22;;;;;;;12.27;11.27;;;;;;;;;;4874299;29;21249;-87
2023/09/11 14:05:50;;;;;;;11.10;10.20;;;;;;;;;;4908008;29;20769;-88
2023/09/11 14:08:19;;;;;;;11.80;10.60;;;;;;;;;;4889656;29;20729;-87
2023/09/11 14:10:48;;;;;;;11.73;10.93;;;;;;;;;;4889984;29;21324;-87
2023/09/11 14:13:19;;;;;;;12.53;11.33;;;;;;;;;;4889112;29;20721;-87
2023/09/11 14:15:48;;;;;;;11.80;10.90;;;;;;;;;;4900498;29;20756;-87
2023/09/11 14:18:16;;;;;;;13.50;12.43;;;;;;;;;;4908127;29;20804;-87
2023/09/11 14:20:46;;;;;;;11.63;10.57;;;;;;;;;;4878032;29;20641;-86
2023/09/11 14:23:14;;;;;;;11.97;10.73;;;;;;;;;;4878964;29;20690;-88
2023/09/11 14:25:44;;;;;;;11.83;10.93;;;;;;;;;;4894114;29;21100;-88
2023/09/11 14:28:12;;;;;;;10.97;10.23;;;;;;;;;;4894150;29;20728;-87
2023/09/11 14:30:41;;;;;;;11.63;10.53;;;;;;;;;;4881739;29;20761;-88
2023/09/11 14:33:10;;;;;;;11.30;10.60;;;;;;;;;;4910956;29;20638;-88
2023/09/11 14:35:38;;;;;;;11.57;10.70;;;;;;;;;;4909786;29;20701;-88
2023/09/11 14:38:08;;;;;;;11.67;10.57;;;;;;;;;;4894319;29;20630;-88
2023/09/11 14:40:37;;;;;;;12.40;10.40;;;;;;;;;;4898474;29;21008;-87
2023/09/11 14:43:05;;;;;;;11.87;10.73;;;;;;;;;;4928531;29;20700;-88
2023/09/11 14:45:34;;;;;;;11.83;10.63;;;;;;;;;;4914458;29;20676;-87
2023/09/11 14:48:04;;;;;;;16.30;11.10;;;;;;;;;;4913422;29;20668;-88
2023/09/11 14:50:33;;;;;;;10.67;9.77;;;;;;;;;;4915725;29;20749;-88
2023/09/11 14:53:02;;;;;;;10.93;10.00;;;;;;;;;;4931002;29;20715;-88
2023/09/11 14:55:32;;;;;;;12.10;10.10;;;;;;;;;;4929660;29;20681;-88
2023/09/11 14:58:01;;;;;;;11.50;10.50;;;;;;;;;;4928609;29;20598;-88
2023/09/11 15:00:30;;;;;;;13.47;10.20;;;;;;;;;;4911587;29;20624;-87
2023/09/11 15:02:59;;;;;;;12.67;11.40;;;;;;;;;;4896746;29;20685;-88
2023/09/11 15:05:27;;;;;;;11.97;10.97;;;;;;;;;;4897269;29;20709;-88
2023/09/11 15:07:57;;;;;;;11.27;10.20;;;;;;;;;;4925468;29;20641;-88
2023/09/11 15:10:25;;;;;;;12.30;10.90;;;;;;;;;;4923687;29;21249;-88
2023/09/11 15:13:00;;;;;;;11.70;10.47;;;;;;;;;;4928696;29;20696;-87
2023/09/11 15:15:29;;;;;;;12.17;11.27;;;;;;;;;;4911479;29;20688;-89
2023/09/11 15:17:58;;;;;;;12.00;10.70;;;;;;;;;;4875723;29;20705;-88
2023/09/11 15:20:26;;;;;;;14.43;10.83;;;;;;;;;;4876389;29;20645;-87
2023/09/11 15:22:55;;;;;;;12.20;9.83;;;;;;;;;;4892187;29;20698;-86
2023/09/11 15:25:23;;;;;;;10.03;9.10;;;;;;;;;;4891954;29;20670;-87
2023/09/11 15:27:53;;;;;;;12.77;10.83;;;;;;;;;;4907095;29;20629;-87
2023/09/11 15:30:22;;;;;;;12.03;10.90;;;;;;;;;;4892753;29;20740;-87
2023/09/11 15:32:55;;;;;;;12.80;11.33;;;;;;;;;;4892325;29;20646;-87
2023/09/11 15:35:23;;;;;;;15.03;10.97;;;;;;;;;;4876836;29;20595;-87
2023/09/11 15:37:52;;;;;;;14.30;11.80;;;;;;;;;;4892970;29;20737;-87
2023/09/11 15:40:21;;;;;;;14.50;12.80;;;;;;;;;;4910521;29;20602;-87
2023/09/11 15:42:51;;;;;;;14.30;12.97;;;;;;;;;;4927502;29;20716;-87
2023/09/11 15:45:19;;;;;;;13.17;12.17;;;;;;;;;;4910860;29;20644;-87
2023/09/11 15:47:57;;;;;;;13.43;12.10;;;;;;;;;;4911114;29;20696;-87
2023/09/11 15:50:25;;;;;;;13.27;12.07;;;;;;;;;;4926901;29;21066;-87
2023/09/11 15:52:55;;;;;;;19.43;12.27;;;;;;;;;;4916609;29;21057;-86
2023/09/11 15:55:24;;;;;;;13.60;11.20;;;;;;;;;;4893864;29;20701;-86